createdAt,value
2023-02-23T00:05:32.562Z,99.90
2023-02-23T00:17:32.279Z,99.90
2023-02-23T02:10:20.127Z,99.90
2023-02-23T02:21:15.731Z,99.90
2023-02-23T02:33:25.871Z,99.90
2023-02-23T02:59:17.358Z,99.90
2023-02-23T04:06:56.327Z,99.90
2023-02-23T04:10:47.511Z,99.90
2023-02-23T04:14:18.693Z,99.90
2023-02-23T04:16:58.039Z,99.90
2023-02-23T04:20:23.401Z,99.90
2023-02-23T05:25:52.975Z,99.90
2023-02-23T05:29:51.544Z,99.90
2023-02-23T05:37:24.141Z,99.90
2023-02-23T07:02:38.613Z,99.90
2023-02-23T07:10:04.879Z,99.90
2023-02-23T07:15:06.549Z,99.90
2023-02-23T07:20:01.608Z,99.90
2023-02-23T07:22:33.021Z,99.90
2023-02-23T07:27:27.764Z,99.90
2023-02-23T07:29:54.847Z,99.90
2023-02-23T07:37:21.729Z,99.90
2023-02-23T07:45:11.776Z,99.90
2023-02-23T07:50:12.683Z,99.90
2023-02-23T07:52:43.111Z,99.90
2023-02-23T07:55:11.618Z,99.90
2023-02-23T07:57:39.496Z,99.90
2023-02-23T08:00:07.489Z,99.90
2023-02-23T08:02:40.441Z,99.90
2023-02-23T08:05:12.624Z,99.90
2023-02-23T08:07:40.022Z,99.90
2023-02-23T08:10:08.137Z,99.90
2023-02-23T08:15:08.304Z,99.90
2023-02-23T08:17:37.580Z,99.90
2023-02-23T08:20:22.352Z,99.90
2023-02-23T08:23:19.071Z,99.90
2023-02-23T08:25:56.950Z,99.90
2023-02-23T08:28:38.601Z,99.90
2023-02-23T08:31:57.157Z,99.90
2023-02-23T08:34:51.212Z,99.90
2023-02-23T08:41:30.100Z,99.90
2023-02-23T08:44:23.113Z,99.90
2023-02-23T08:47:13.330Z,99.90
2023-02-23T08:50:27.497Z,99.90
2023-02-23T08:53:06.609Z,99.90
2023-02-23T08:59:06.717Z,99.90
2023-02-23T09:04:03.480Z,99.90
2023-02-23T09:11:28.814Z,99.90
2023-02-23T09:34:19.860Z,99.90
2023-02-23T09:42:24.976Z,99.90
2023-02-23T09:45:28.837Z,99.90
2023-02-23T09:51:06.702Z,99.90
2023-02-23T09:54:13.891Z,99.90
2023-02-23T09:56:49.912Z,99.90
2023-02-23T09:59:23.329Z,99.90
2023-02-23T10:02:27.269Z,99.90
2023-02-23T10:12:20.579Z,99.90
2023-02-23T10:15:06.678Z,99.90
2023-02-23T10:18:06.793Z,99.90
2023-02-23T10:20:52.052Z,99.90
2023-02-23T10:23:26.139Z,99.90
2023-02-23T10:25:59.942Z,99.90
2023-02-23T10:28:30.021Z,99.90
2023-02-23T10:33:35.809Z,99.90
2023-02-23T10:36:15.265Z,99.90
2023-02-23T10:41:12.576Z,99.90
2023-02-23T10:43:41.472Z,99.90
2023-02-23T10:46:19.778Z,99.90
2023-02-23T10:48:48.693Z,99.90
2023-02-23T10:51:30.185Z,99.90
2023-02-23T10:56:34.279Z,99.90
2023-02-23T10:59:05.104Z,99.90
2023-02-23T11:02:00.763Z,99.90
2023-02-23T11:04:34.889Z,99.90
2023-02-23T11:07:27.715Z,99.90
2023-02-23T11:14:55.361Z,99.90
2023-02-23T11:17:35.186Z,99.90
2023-02-23T11:20:21.500Z,99.90
2023-02-23T11:25:28.993Z,99.90
2023-02-23T11:27:59.727Z,99.90
2023-02-23T11:30:42.894Z,99.90
2023-02-23T11:33:18.496Z,99.90
2023-02-23T11:38:24.112Z,99.90
2023-02-23T11:41:07.432Z,99.90
2023-02-23T11:43:36.275Z,99.90
2023-02-23T11:48:42.847Z,99.90
2023-02-23T11:53:44.085Z,99.90
2023-02-23T11:58:59.952Z,99.90
2023-02-23T12:01:48.009Z,99.90
2023-02-23T12:04:31.047Z,99.90
2023-02-23T12:07:24.795Z,99.90
2023-02-23T12:10:10.348Z,99.90
2023-02-23T12:12:48.846Z,99.90
2023-02-23T12:15:43.169Z,99.90
2023-02-23T12:18:36.301Z,99.90
2023-02-23T12:21:31.349Z,99.90
2023-02-23T12:24:25.993Z,99.90
2023-02-23T12:27:17.606Z,99.90
2023-02-23T12:30:06.248Z,99.90
2023-02-23T12:33:00.303Z,99.90
2023-02-23T12:35:55.533Z,99.90
2023-02-23T12:38:58.074Z,99.90
2023-02-23T12:41:35.101Z,99.90
2023-02-23T12:44:20.521Z,99.90
2023-02-23T12:46:52.079Z,99.90
2023-02-23T12:49:32.728Z,99.90
2023-02-23T12:52:08.501Z,99.90
2023-02-23T12:54:37.142Z,99.90
2023-02-23T12:57:40.469Z,99.90
2023-02-23T13:00:33.287Z,99.90
2023-02-23T13:03:51.434Z,99.90
2023-02-23T13:06:45.406Z,99.90
2023-02-23T13:09:45.537Z,99.90
2023-02-23T13:12:42.686Z,99.90
2023-02-23T13:15:22.043Z,99.90
2023-02-23T13:18:06.270Z,99.90
2023-02-23T13:20:57.646Z,99.90
2023-02-23T13:23:47.137Z,99.90
2023-02-23T13:26:45.560Z,99.90
2023-02-23T13:29:42.024Z,99.90
2023-02-23T13:32:26.444Z,99.90
2023-02-23T13:35:52.701Z,99.90
2023-02-23T13:38:36.107Z,99.90
2023-02-23T13:41:06.624Z,99.90
2023-02-23T13:43:49.590Z,99.90
2023-02-23T13:46:39.999Z,99.90
2023-02-23T13:49:46.557Z,99.90
2023-02-23T13:52:20.076Z,99.90
2023-02-23T13:54:57.455Z,99.90
2023-02-23T13:57:27.837Z,99.90
2023-02-23T14:02:33.107Z,99.90
2023-02-23T14:05:27.683Z,99.90
2023-02-23T14:08:05.284Z,99.90
2023-02-23T14:10:44.121Z,99.90
2023-02-23T14:13:14.424Z,99.90
2023-02-23T14:15:59.542Z,99.90
2023-02-23T14:18:32.227Z,99.90
2023-02-23T14:21:28.654Z,99.90
2023-02-23T14:24:19.437Z,99.90
2023-02-23T14:27:38.400Z,99.90
2023-02-23T14:30:23.691Z,99.90
2023-02-23T14:35:34.694Z,99.90
2023-02-23T14:38:07.772Z,99.90
2023-02-23T14:40:41.075Z,99.90
2023-02-23T14:43:36.141Z,99.90
2023-02-23T14:48:39.269Z,99.90
2023-02-23T14:51:18.585Z,99.90
2023-02-23T14:56:42.247Z,99.90
2023-02-23T14:59:44.221Z,99.90
2023-02-23T15:02:20.617Z,99.90
2023-02-23T15:07:37.973Z,99.90
2023-02-23T15:10:22.112Z,99.90
2023-02-23T15:15:21.008Z,99.90
2023-02-23T15:17:50.482Z,99.90
2023-02-23T16:56:41.151Z,99.90
2023-02-23T17:27:45.702Z,99.90
2023-02-23T17:30:39.174Z,99.90
2023-02-23T17:33:39.053Z,99.90
2023-02-23T17:36:13.211Z,99.90
2023-02-23T17:39:01.783Z,99.90
2023-02-23T17:44:26.786Z,99.90
2023-02-23T17:50:37.829Z,99.90
2023-02-23T17:58:25.657Z,99.90
2023-02-23T18:07:22.669Z,99.90
2023-02-23T18:18:32.246Z,99.90
2023-02-23T18:21:22.604Z,99.90
2023-02-23T18:24:16.101Z,99.90
2023-02-23T18:27:05.054Z,99.90
2023-02-23T18:29:43.583Z,99.90
2023-02-23T18:32:21.687Z,99.90
2023-02-23T18:37:37.198Z,99.90
2023-02-23T18:40:23.694Z,99.90
2023-02-23T18:43:20.201Z,99.90
2023-02-23T18:45:59.745Z,99.90
2023-02-23T18:48:26.942Z,99.90
2023-02-23T18:51:06.027Z,99.90
2023-02-23T18:54:14.389Z,99.90
2023-02-23T18:57:00.984Z,99.90
2023-02-23T18:59:37.886Z,99.90
2023-02-23T19:10:13.627Z,99.90
2023-02-23T19:21:47.298Z,99.90
2023-02-23T19:27:39.179Z,99.90
2023-02-23T19:31:02.249Z,99.90
2023-02-23T19:35:23.520Z,99.90
2023-02-23T19:39:19.966Z,99.90
2023-02-23T19:42:31.130Z,99.90
2023-02-23T19:45:54.447Z,99.90
2023-02-23T19:49:56.500Z,99.90
2023-02-23T19:52:55.412Z,99.90
2023-02-23T19:56:31.141Z,99.90
2023-02-23T19:59:17.158Z,99.90
2023-02-23T20:07:50.581Z,99.90
2023-02-23T20:14:48.747Z,99.90
2023-02-23T20:25:21.524Z,96.90
2023-02-23T20:30:55.374Z,99.90
2023-02-23T20:38:47.605Z,99.90
2023-02-23T20:44:23.403Z,99.90
2023-02-23T20:46:59.927Z,99.90
2023-02-23T20:49:28.240Z,99.50
2023-02-23T20:55:07.293Z,92.50
2023-02-23T20:58:03.096Z,93.30
2023-02-23T21:01:26.730Z,93.20
2023-02-23T21:04:05.422Z,92.30
2023-02-23T21:11:35.167Z,93.60
2023-02-23T21:21:32.135Z,96.90
2023-02-23T21:26:43.598Z,98.80
2023-02-23T21:30:13.339Z,99.70
2023-02-23T21:33:09.138Z,98.50
2023-02-23T21:38:39.736Z,99.90
2023-02-23T21:41:14.717Z,99.90
2023-02-23T21:43:53.612Z,99.90
2023-02-23T21:46:49.888Z,99.90
2023-02-23T21:50:00.882Z,99.90
2023-02-23T21:52:59.188Z,99.90
2023-02-23T21:56:03.692Z,99.90
2023-02-23T22:05:08.855Z,99.90
2023-02-23T22:08:33.960Z,99.90
2023-02-23T22:12:05.624Z,99.90
2023-02-23T22:23:14.325Z,98.40
2023-02-23T22:27:04.186Z,98.50
2023-02-23T22:30:22.899Z,99.90
2023-02-23T22:33:38.859Z,99.90
2023-02-23T22:43:52.848Z,99.90
2023-02-23T22:47:26.519Z,99.90
2023-02-23T22:50:26.256Z,99.90
2023-02-23T22:53:16.899Z,99.90
2023-02-23T22:56:50.051Z,97.30
2023-02-23T23:04:01.842Z,96.50
2023-02-23T23:06:44.406Z,96.80
2023-02-23T23:09:27.714Z,98.30
2023-02-23T23:12:15.439Z,98.40
2023-02-23T23:21:09.434Z,99.90
2023-02-23T23:31:01.019Z,99.90
2023-02-23T23:34:05.408Z,99.90
2023-02-23T23:36:57.497Z,99.90
2023-02-23T23:43:26.095Z,99.90
2023-02-23T23:51:25.819Z,99.80
2023-02-23T23:54:16.149Z,99.90
2023-02-23T23:57:40.016Z,98.90
